TimeMDT,TemperatureF,Dew PointF,Humidity,Sea Level PressureIn,VisibilityMPH,Wind Direction,Wind SpeedMPH,Gust SpeedMPH,PrecipitationIn,Events,Conditions,WindDirDegrees,DateUTC
12:53 AM,48.9,46.0,90,29.95,7.0,West,10.4,-,0.06,Rain,Light Rain,270,2011-10-08 06:53:00
1:53 AM,48.0,46.0,93,29.97,10.0,WNW,9.2,-,0.01,,Overcast,300,2011-10-08 07:53:00
2:53 AM,48.9,45.0,86,29.96,10.0,NW,11.5,-,N/A,,Overcast,310,2011-10-08 08:53:00
3:53 AM,46.9,43.0,86,30.00,10.0,WNW,9.2,-,N/A,,Clear,300,2011-10-08 09:53:00
4:53 AM,48.0,44.1,86,30.06,10.0,West,6.9,-,N/A,,Overcast,280,2011-10-08 10:53:00
5:53 AM,48.0,44.1,86,30.09,10.0,WNW,9.2,-,0.00,,Overcast,300,2011-10-08 11:53:00
7:53 AM,46.9,43.0,86,30.17,10.0,WNW,10.4,-,0.00,,Overcast,300,2011-10-08 13:53:00
8:53 AM,48.0,43.0,83,30.17,10.0,WNW,9.2,-,N/A,,Clear,300,2011-10-08 14:53:00
9:53 AM,50.0,42.1,74,30.19,10.0,NW,16.1,-,N/A,,Clear,320,2011-10-08 15:53:00
10:53 AM,51.1,42.1,71,30.21,10.0,NW,11.5,-,N/A,,Partly Cloudy,310,2011-10-08 16:53:00
11:53 AM,52.0,41.0,66,30.22,10.0,NNW,13.8,19.6,N/A,,Partly Cloudy,330,2011-10-08 17:53:00
12:53 PM,54.0,39.0,57,30.23,10.0,NW,17.3,23.0,N/A,,Mostly Cloudy,310,2011-10-08 18:53:00
1:53 PM,55.9,39.9,55,30.21,10.0,NNW,13.8,20.7,N/A,,Scattered Clouds,330,2011-10-08 19:53:00
2:53 PM,57.9,39.0,49,30.20,10.0,NNW,17.3,-,N/A,,Mostly Cloudy,330,2011-10-08 20:53:00
3:53 PM,57.0,37.0,47,30.20,10.0,NNW,13.8,19.6,N/A,,Clear,340,2011-10-08 21:53:00
4:53 PM,57.0,35.1,44,30.21,10.0,North,15.0,21.9,N/A,,Partly Cloudy,350,2011-10-08 22:53:00
5:53 PM,55.0,35.1,47,30.23,10.0,North,9.2,-,N/A,,Clear,360,2011-10-08 23:53:00
6:53 PM,50.0,35.6,58,30.24,10.0,North,6.9,-,N/A,,Clear,360,2011-10-09 00:53:00
7:53 PM,48.2,37.4,66,30.26,10.0,North,5.8,-,N/A,,Clear,10,2011-10-09 01:53:00
8:53 PM,46.9,36.0,66,30.29,10.0,North,5.8,-,N/A,,Clear,360,2011-10-09 02:53:00
9:53 PM,43.0,36.0,76,30.29,10.0,NW,5.8,-,N/A,,Clear,320,2011-10-09 03:53:00
10:53 PM,43.0,35.1,74,30.30,10.0,Calm,Calm,-,N/A,,Clear,0,2011-10-09 04:53:00